createdAt,value
2022-09-20T00:00:25.435Z,9.07
2022-09-20T00:03:11.032Z,9.12
2022-09-20T00:06:00.405Z,9.12
2022-09-20T00:08:46.498Z,9.11
2022-09-20T00:11:32.776Z,9.03
2022-09-20T00:14:18.275Z,8.98
2022-09-20T00:17:03.802Z,9.01
2022-09-20T00:19:49.428Z,9.07
2022-09-20T00:22:35.024Z,9.13
2022-09-20T00:25:20.631Z,9.18
2022-09-20T00:28:06.217Z,9.21
2022-09-20T00:30:52.178Z,9.24
2022-09-20T00:33:55.885Z,9.25
2022-09-20T00:36:41.343Z,9.24
2022-09-20T00:39:26.670Z,9.24
2022-09-20T00:42:15.420Z,9.21
2022-09-20T00:45:21.148Z,9.17
2022-09-20T00:48:13.311Z,9.10
2022-09-20T00:51:08.093Z,9.03
2022-09-20T00:53:54.971Z,8.99
2022-09-20T00:56:44.053Z,8.96
2022-09-20T00:59:38.048Z,8.94
2022-09-20T01:02:26.111Z,8.94
2022-09-20T01:05:13.565Z,8.97
2022-09-20T01:07:59.214Z,8.96
2022-09-20T01:10:44.947Z,8.95
2022-09-20T01:13:30.200Z,8.95
2022-09-20T01:16:16.168Z,8.94
2022-09-20T01:19:08.105Z,8.91
2022-09-20T01:21:54.136Z,8.86
2022-09-20T01:25:06.051Z,8.83
2022-09-20T01:27:52.269Z,8.79
2022-09-20T01:30:45.095Z,8.78
2022-09-20T01:33:35.647Z,8.79
2022-09-20T01:36:28.860Z,8.81
2022-09-20T01:39:34.439Z,8.78
2022-09-20T01:42:22.994Z,8.75
2022-09-20T01:45:31.556Z,8.73
2022-09-20T01:48:33.057Z,8.73
2022-09-20T01:51:37.412Z,8.71
2022-09-20T01:54:41.629Z,8.70
2022-09-20T01:57:38.248Z,8.68
2022-09-20T02:00:31.699Z,8.62
2022-09-20T02:03:36.003Z,8.57
2022-09-20T02:06:24.618Z,8.49
2022-09-20T02:09:13.335Z,8.46
2022-09-20T02:12:17.706Z,8.47
2022-09-20T02:15:26.508Z,8.49
2022-09-20T02:18:26.949Z,8.51
2022-09-20T02:21:27.764Z,8.53
2022-09-20T02:24:41.752Z,8.54
2022-09-20T02:27:49.883Z,8.53
2022-09-20T02:30:44.572Z,8.53
2022-09-20T02:33:29.986Z,8.55
2022-09-20T02:36:33.661Z,8.56
2022-09-20T02:39:44.395Z,8.59
2022-09-20T02:42:36.014Z,8.60
2022-09-20T02:45:36.572Z,8.63
2022-09-20T02:48:27.668Z,8.63
2022-09-20T02:51:13.332Z,8.65
2022-09-20T02:53:58.696Z,8.67
2022-09-20T02:56:46.987Z,8.69
2022-09-20T02:59:32.276Z,8.70
2022-09-20T03:02:36.506Z,8.70
2022-09-20T03:05:24.109Z,8.68
2022-09-20T03:08:18.383Z,8.70
2022-09-20T03:11:03.955Z,8.69
2022-09-20T03:14:05.373Z,8.66
2022-09-20T03:17:00.049Z,8.63
2022-09-20T03:20:04.967Z,8.64
2022-09-20T03:23:09.230Z,8.68
2022-09-20T03:26:02.148Z,8.69
2022-09-20T03:28:58.062Z,8.68
2022-09-20T03:32:02.860Z,8.70
2022-09-20T03:34:57.780Z,8.67
2022-09-20T03:37:54.430Z,8.70
2022-09-20T03:40:58.881Z,8.69
2022-09-20T03:43:52.310Z,8.67
2022-09-20T03:46:47.591Z,8.66
2022-09-20T03:49:47.095Z,8.62
2022-09-20T03:52:47.389Z,8.61
2022-09-20T03:55:38.674Z,8.63
2022-09-20T03:58:36.421Z,8.68
2022-09-20T04:01:28.066Z,8.69
2022-09-20T04:04:19.831Z,8.65
2022-09-20T04:07:24.327Z,8.64
2022-09-20T04:10:28.330Z,8.65
2022-09-20T04:13:22.830Z,8.67
2022-09-20T04:16:27.207Z,8.67
2022-09-20T04:19:33.232Z,8.64
2022-09-20T04:22:20.955Z,8.60
2022-09-20T04:25:12.854Z,8.58
2022-09-20T04:28:21.168Z,8.59
2022-09-20T04:31:15.530Z,8.67
2022-09-20T04:34:02.442Z,8.73
2022-09-20T04:37:17.409Z,8.81
2022-09-20T04:40:02.681Z,8.87
2022-09-20T04:43:19.934Z,8.93
2022-09-20T04:46:05.472Z,8.99
2022-09-20T04:49:05.070Z,9.04
2022-09-20T04:51:58.175Z,9.07
2022-09-20T04:54:55.585Z,9.11
2022-09-20T04:58:04.705Z,9.12
2022-09-20T05:01:09.652Z,9.15
2022-09-20T05:03:55.338Z,9.19
2022-09-20T05:06:59.226Z,9.21
2022-09-20T05:09:53.419Z,9.19
2022-09-20T05:13:07.555Z,9.18
2022-09-20T05:16:11.703Z,9.21
2022-09-20T05:19:07.551Z,9.25
2022-09-20T05:22:22.110Z,9.26
2022-09-20T05:25:19.197Z,9.27
2022-09-20T05:28:31.052Z,9.30
2022-09-20T05:31:25.361Z,9.34
2022-09-20T05:34:25.777Z,9.36
2022-09-20T05:37:14.150Z,9.41
2022-09-20T05:40:05.693Z,9.43
2022-09-20T05:43:11.861Z,9.48
2022-09-20T05:46:03.738Z,9.51
2022-09-20T05:48:57.915Z,9.53
2022-09-20T05:51:49.517Z,9.58
2022-09-20T05:54:35.514Z,9.60
2022-09-20T05:57:39.322Z,9.61
2022-09-20T06:00:29.443Z,9.62
2022-09-20T06:03:34.184Z,9.65
2022-09-20T06:06:21.337Z,9.65
2022-09-20T06:09:17.337Z,9.68
2022-09-20T06:12:12.097Z,9.69
2022-09-20T06:15:01.898Z,9.69
2022-09-20T06:17:57.641Z,9.70
2022-09-20T06:20:51.938Z,9.65
2022-09-20T06:23:37.273Z,9.65
2022-09-20T06:26:27.792Z,9.62
2022-09-20T06:29:13.893Z,9.59
2022-09-20T06:31:59.412Z,9.61
2022-09-20T06:34:45.341Z,9.65
2022-09-20T06:38:29.845Z,9.69
2022-09-20T06:41:30.697Z,9.74
2022-09-20T06:44:22.510Z,9.79
2022-09-20T06:47:11.737Z,9.83
2022-09-20T06:49:59.331Z,9.88
2022-09-20T06:52:46.695Z,9.92
2022-09-20T06:55:38.964Z,9.96
2022-09-20T06:58:27.173Z,10.00
2022-09-20T07:01:13.829Z,10.07
2022-09-20T07:03:59.298Z,10.11
2022-09-20T07:06:44.571Z,10.18
2022-09-20T07:09:29.654Z,10.27
2022-09-20T07:12:16.361Z,10.37
2022-09-20T07:15:04.086Z,10.47
2022-09-20T07:17:49.491Z,10.66
2022-09-20T07:20:35.500Z,10.81
2022-09-20T07:23:20.685Z,10.97
2022-09-20T07:26:06.517Z,11.10
2022-09-20T07:28:52.169Z,11.17
2022-09-20T07:31:37.722Z,11.21
2022-09-20T07:34:23.225Z,11.22
2022-09-20T07:37:08.852Z,11.21
2022-09-20T07:39:54.586Z,11.19
2022-09-20T07:42:40.233Z,11.18
2022-09-20T07:45:25.983Z,11.20
2022-09-20T07:48:15.517Z,11.23
2022-09-20T07:51:08.453Z,11.20
2022-09-20T07:53:54.345Z,11.17
2022-09-20T07:56:39.901Z,11.19
2022-09-20T07:59:26.037Z,11.31
2022-09-20T08:02:15.875Z,11.41
2022-09-20T08:05:04.804Z,11.48
2022-09-20T08:07:50.092Z,11.49
2022-09-20T08:10:35.456Z,11.53
2022-09-20T08:16:27.634Z,11.65
2022-09-20T08:19:17.838Z,11.65
2022-09-20T08:22:03.164Z,11.68
2022-09-20T08:24:48.892Z,11.67
2022-09-20T08:27:33.980Z,11.69
2022-09-20T08:30:19.216Z,11.74
2022-09-20T08:33:05.158Z,11.78
2022-09-20T08:35:50.575Z,11.79
2022-09-20T08:41:41.964Z,11.72
2022-09-20T08:44:45.816Z,11.69
2022-09-20T08:47:33.210Z,11.66
2022-09-20T08:50:19.981Z,11.67
2022-09-20T08:53:05.562Z,11.70
2022-09-20T08:55:50.746Z,11.73
2022-09-20T08:58:36.408Z,11.75
2022-09-20T09:01:23.501Z,11.77
2022-09-20T09:04:19.484Z,11.78
2022-09-20T09:07:04.990Z,11.76
2022-09-20T09:09:51.919Z,11.74
2022-09-20T09:12:37.384Z,11.68
2022-09-20T09:15:32.729Z,11.62
2022-09-20T09:18:18.173Z,11.56
2022-09-20T09:21:04.965Z,11.52
2022-09-20T09:23:52.130Z,11.50
2022-09-20T09:26:43.406Z,11.48
2022-09-20T09:29:31.732Z,11.49
2022-09-20T09:32:29.188Z,11.50
2022-09-20T09:35:31.567Z,11.53
2022-09-20T09:38:23.419Z,11.56
2022-09-20T09:41:17.907Z,11.62
2022-09-20T09:44:09.659Z,11.67
2022-09-20T09:46:56.608Z,11.72
2022-09-20T09:49:59.718Z,11.76
2022-09-20T09:52:58.244Z,11.80
2022-09-20T09:56:02.253Z,11.91
2022-09-20T09:59:10.638Z,11.99
2022-09-20T10:01:56.358Z,12.05
2022-09-20T10:04:57.444Z,12.08
2022-09-20T10:08:03.173Z,12.12
2022-09-20T10:11:00.889Z,12.11
2022-09-20T10:14:06.526Z,12.13
2022-09-20T10:16:53.086Z,12.14
2022-09-20T10:19:57.552Z,12.12
2022-09-20T10:23:14.707Z,12.10
2022-09-20T10:25:58.731Z,12.06
2022-09-20T10:29:03.299Z,12.02
2022-09-20T10:32:12.066Z,12.03
2022-09-20T10:35:05.082Z,12.05
2022-09-20T10:37:50.521Z,12.06
2022-09-20T10:41:13.303Z,12.10
2022-09-20T10:44:05.818Z,12.13
2022-09-20T10:47:08.470Z,12.14
2022-09-20T10:50:21.297Z,12.11
2022-09-20T10:59:58.493Z,12.11
2022-09-20T11:02:50.106Z,12.21
2022-09-20T11:05:42.050Z,12.27
2022-09-20T11:12:42.809Z,12.31
2022-09-20T11:15:32.524Z,12.33
2022-09-20T11:18:33.266Z,12.38
2022-09-20T11:21:19.994Z,12.44
2022-09-20T11:24:05.457Z,12.43
2022-09-20T11:26:53.122Z,12.43
2022-09-20T11:29:50.298Z,12.39
2022-09-20T11:32:36.699Z,12.30
2022-09-20T11:35:22.460Z,12.23
2022-09-20T11:38:27.180Z,12.15
2022-09-20T11:41:22.708Z,12.07
2022-09-20T11:44:14.966Z,12.06
2022-09-20T11:47:26.611Z,12.10
2022-09-20T11:50:28.905Z,12.06
2022-09-20T11:54:07.697Z,12.00
2022-09-20T11:56:56.601Z,11.96
2022-09-20T11:59:42.459Z,11.92
2022-09-20T12:02:28.349Z,11.92
2022-09-20T12:05:35.312Z,11.91
2022-09-20T12:08:50.333Z,11.83
2022-09-20T12:11:38.852Z,11.74
2022-09-20T12:14:25.878Z,11.70
2022-09-20T12:17:29.590Z,11.70
2022-09-20T12:23:41.232Z,11.88
2022-09-20T12:26:26.407Z,11.94
2022-09-20T12:29:24.512Z,12.03
2022-09-20T12:32:29.112Z,12.13
2022-09-20T12:35:35.034Z,12.15
2022-09-20T12:38:20.753Z,12.11
2022-09-20T12:41:08.817Z,12.06
2022-09-20T12:43:54.380Z,11.99
2022-09-20T12:46:42.585Z,11.97
2022-09-20T12:49:54.326Z,11.96
2022-09-20T12:52:58.031Z,11.97
2022-09-20T12:55:51.566Z,11.96
2022-09-20T12:58:53.848Z,11.94
2022-09-20T13:01:39.555Z,11.94
2022-09-20T13:04:41.906Z,11.94
2022-09-20T13:07:33.910Z,11.99
2022-09-20T13:10:24.234Z,12.07
2022-09-20T13:13:16.533Z,12.06
2022-09-20T13:16:05.723Z,12.05
2022-09-20T13:19:02.192Z,11.99
2022-09-20T13:22:17.586Z,11.93
2022-09-20T13:25:04.888Z,11.84
2022-09-20T13:28:10.411Z,11.85
2022-09-20T13:31:16.411Z,11.92
2022-09-20T13:34:14.084Z,12.00
2022-09-20T13:37:00.689Z,12.08
2022-09-20T13:39:46.765Z,12.12
2022-09-20T13:42:35.675Z,12.16
2022-09-20T13:45:22.070Z,12.15
2022-09-20T13:48:08.924Z,12.07
2022-09-20T13:50:54.993Z,12.00
2022-09-20T13:53:42.071Z,11.94
2022-09-20T13:56:28.842Z,11.90
2022-09-20T13:59:19.300Z,11.85
2022-09-20T14:02:04.692Z,11.85
2022-09-20T14:04:53.757Z,11.83
2022-09-20T14:07:39.132Z,11.82
2022-09-20T14:10:41.115Z,11.82
2022-09-20T14:13:26.540Z,11.81
2022-09-20T14:16:12.583Z,11.78
2022-09-20T14:18:59.120Z,11.74
2022-09-20T14:21:45.083Z,11.67
2022-09-20T14:24:35.433Z,11.63
2022-09-20T14:27:21.792Z,11.57
2022-09-20T14:30:07.935Z,11.53
2022-09-20T14:32:54.843Z,11.50
2022-09-20T14:35:46.342Z,11.45
2022-09-20T14:38:32.957Z,11.40
2022-09-20T14:41:27.825Z,11.29
2022-09-20T14:44:33.130Z,11.20
2022-09-20T14:47:25.838Z,11.12
2022-09-20T14:50:30.282Z,11.03
2022-09-20T14:53:18.977Z,10.99
2022-09-20T14:56:04.409Z,10.93
2022-09-20T14:59:06.886Z,10.92
2022-09-20T15:02:13.576Z,10.93
2022-09-20T15:05:00.906Z,10.96
2022-09-20T15:07:46.902Z,10.98
2022-09-20T15:10:32.237Z,10.99
2022-09-20T15:13:18.368Z,10.99
2022-09-20T15:16:04.441Z,10.96
2022-09-20T15:18:49.984Z,10.93
2022-09-20T15:21:35.430Z,10.88
2022-09-20T15:24:21.024Z,10.84
2022-09-20T15:27:06.433Z,10.83
2022-09-20T15:29:51.948Z,10.81
2022-09-20T15:32:37.596Z,10.76
2022-09-20T15:35:23.017Z,10.71
2022-09-20T15:38:11.158Z,10.68
2022-09-20T15:40:56.734Z,10.65
2022-09-20T15:43:43.265Z,10.62
2022-09-20T15:46:29.360Z,10.61
2022-09-20T15:49:15.075Z,10.61
2022-09-20T15:52:00.959Z,10.61
2022-09-20T15:54:46.685Z,10.59
2022-09-20T15:57:32.117Z,10.58
2022-09-20T16:00:18.239Z,10.62
2022-09-20T16:03:03.443Z,10.65
2022-09-20T16:06:03.920Z,10.68
2022-09-20T16:08:50.524Z,10.69
2022-09-20T16:11:36.221Z,10.74
2022-09-20T16:14:21.704Z,10.80
2022-09-20T16:17:07.541Z,10.88
2022-09-20T16:19:58.105Z,10.93
2022-09-20T16:22:44.141Z,10.98
2022-09-20T16:25:30.174Z,11.04
2022-09-20T16:28:16.195Z,11.14
2022-09-20T16:31:02.131Z,11.18
2022-09-20T16:33:47.375Z,11.24
2022-09-20T16:36:33.231Z,11.29
2022-09-20T16:39:19.676Z,11.31
2022-09-20T16:42:06.035Z,11.34
2022-09-20T16:44:51.538Z,11.39
2022-09-20T16:47:41.102Z,11.43
2022-09-20T16:50:27.608Z,11.42
2022-09-20T16:53:13.887Z,11.41
2022-09-20T16:56:01.027Z,11.37
2022-09-20T16:58:47.269Z,11.33
2022-09-20T17:01:34.254Z,11.34
2022-09-20T17:04:21.266Z,11.34
2022-09-20T17:07:07.796Z,11.36
2022-09-20T17:10:00.733Z,11.37
2022-09-20T17:12:47.784Z,11.39
2022-09-20T17:15:35.081Z,11.41
2022-09-20T17:18:20.992Z,11.42
2022-09-20T17:21:06.963Z,11.42
2022-09-20T17:23:56.949Z,11.42
2022-09-20T17:26:44.852Z,11.42
2022-09-20T17:29:30.115Z,11.44
2022-09-20T17:32:15.846Z,11.43
2022-09-20T17:35:01.329Z,11.43
2022-09-20T17:37:46.881Z,11.43
2022-09-20T17:40:32.056Z,11.43
2022-09-20T17:43:17.224Z,11.42
2022-09-20T17:46:26.269Z,11.42
2022-09-20T17:49:13.295Z,11.42
2022-09-20T17:51:58.884Z,11.44
2022-09-20T17:54:45.551Z,11.46
2022-09-20T17:57:30.843Z,11.48
2022-09-20T18:00:16.446Z,11.50
2022-09-20T18:03:04.852Z,11.51
2022-09-20T18:05:52.128Z,11.49
2022-09-20T18:08:37.331Z,11.46
2022-09-20T18:11:25.046Z,11.44
2022-09-20T18:14:10.688Z,11.41
2022-09-20T18:16:58.937Z,11.38
2022-09-20T18:19:44.790Z,11.34
2022-09-20T18:22:30.110Z,11.35
2022-09-20T18:25:15.826Z,11.35
2022-09-20T18:28:01.485Z,11.34
2022-09-20T18:30:51.360Z,11.34
2022-09-20T18:33:38.872Z,11.33
2022-09-20T18:36:34.956Z,11.32
2022-09-20T18:39:24.255Z,11.29
2022-09-20T18:42:10.368Z,10.14
2022-09-20T18:44:56.063Z,10.29
2022-09-20T18:47:44.300Z,11.19
2022-09-20T18:50:29.942Z,11.16
2022-09-20T18:53:15.092Z,11.18
2022-09-20T18:56:19.217Z,11.21
2022-09-20T18:59:06.783Z,11.23
2022-09-20T19:01:55.446Z,11.22
2022-09-20T19:04:57.716Z,11.19
2022-09-20T19:07:52.046Z,11.17
2022-09-20T19:10:41.442Z,11.17
2022-09-20T19:13:35.721Z,11.17
2022-09-20T19:16:25.433Z,11.15
2022-09-20T19:19:21.647Z,11.13
2022-09-20T19:22:20.070Z,11.12
2022-09-20T19:25:25.881Z,11.14
2022-09-20T19:28:12.183Z,11.16
2022-09-20T19:30:58.220Z,11.15
2022-09-20T19:33:45.068Z,11.14
2022-09-20T19:36:30.544Z,11.12
2022-09-20T19:39:22.807Z,11.10
2022-09-20T19:42:08.215Z,11.10
2022-09-20T19:45:13.692Z,11.10
2022-09-20T19:48:02.050Z,11.11
2022-09-20T19:50:54.614Z,11.09
2022-09-20T19:53:40.193Z,11.13
2022-09-20T19:56:27.589Z,11.14
2022-09-20T19:59:13.013Z,11.13
2022-09-20T20:01:58.650Z,11.14
2022-09-20T20:04:43.830Z,11.17
2022-09-20T20:07:37.494Z,11.21
2022-09-20T20:10:22.643Z,11.25
2022-09-20T20:13:35.144Z,11.26
2022-09-20T20:16:26.326Z,11.26
2022-09-20T20:19:34.959Z,11.26
2022-09-20T20:22:39.584Z,11.29
2022-09-20T20:25:28.670Z,11.28
2022-09-20T20:28:14.189Z,11.29
2022-09-20T20:31:02.187Z,11.28
2022-09-20T20:33:48.120Z,11.25
2022-09-20T20:36:33.521Z,11.25
2022-09-20T20:39:19.691Z,11.24
2022-09-20T20:42:06.197Z,11.19
2022-09-20T20:44:51.816Z,11.10
2022-09-20T20:47:37.470Z,11.01
2022-09-20T20:50:22.488Z,10.88
2022-09-20T20:53:07.987Z,10.76
2022-09-20T20:55:59.474Z,10.66
2022-09-20T20:58:45.722Z,10.58
2022-09-20T21:01:35.967Z,10.50
2022-09-20T21:04:21.729Z,10.44
2022-09-20T21:07:07.312Z,10.42
2022-09-20T21:09:52.717Z,10.38
2022-09-20T21:12:38.184Z,10.36
2022-09-20T21:15:23.701Z,10.33
2022-09-20T21:18:10.508Z,10.32
2022-09-20T21:20:55.883Z,10.30
2022-09-20T21:23:41.454Z,10.27
2022-09-20T21:26:28.278Z,10.26
2022-09-20T21:29:14.770Z,10.27
2022-09-20T21:32:00.319Z,10.28
2022-09-20T21:34:45.613Z,10.31
2022-09-20T21:37:31.207Z,10.34
2022-09-20T21:40:16.455Z,10.36
2022-09-20T21:43:02.384Z,10.38
2022-09-20T21:45:47.976Z,10.41
2022-09-20T21:48:33.647Z,10.43
2022-09-20T21:51:20.488Z,10.44
2022-09-20T21:54:05.920Z,10.45
2022-09-20T21:56:55.611Z,10.44
2022-09-20T21:59:41.585Z,10.43
2022-09-20T22:02:27.550Z,10.43
2022-09-20T22:05:13.238Z,10.43
2022-09-20T22:07:58.634Z,10.45
2022-09-20T22:10:54.286Z,10.44
2022-09-20T22:13:41.344Z,10.45
2022-09-20T22:16:28.460Z,10.49
2022-09-20T22:19:15.006Z,10.50
2022-09-20T22:22:00.677Z,10.48
2022-09-20T22:24:46.052Z,10.46
2022-09-20T22:27:31.607Z,10.46
2022-09-20T22:30:17.115Z,10.46
2022-09-20T22:33:03.414Z,10.50
2022-09-20T22:35:48.913Z,10.51
2022-09-20T22:38:34.271Z,10.51
2022-09-20T22:41:20.334Z,10.51
2022-09-20T22:44:06.304Z,10.48
2022-09-20T22:46:51.558Z,10.47
2022-09-20T22:49:37.037Z,10.51
2022-09-20T22:52:22.655Z,10.57
2022-09-20T22:55:08.370Z,10.66
2022-09-20T22:57:54.100Z,10.69
2022-09-20T23:00:39.274Z,10.68
2022-09-20T23:03:25.554Z,10.62
2022-09-20T23:06:11.982Z,10.56
2022-09-20T23:08:58.392Z,10.49
2022-09-20T23:11:43.965Z,10.45
2022-09-20T23:14:29.135Z,10.41
2022-09-20T23:17:14.393Z,10.38
2022-09-20T23:19:59.893Z,10.37
2022-09-20T23:22:45.385Z,10.40
2022-09-20T23:25:31.146Z,10.38
2022-09-20T23:28:17.890Z,10.36
2022-09-20T23:31:07.709Z,10.36
2022-09-20T23:33:54.736Z,10.40
2022-09-20T23:36:40.525Z,10.46
2022-09-20T23:39:26.900Z,10.47
2022-09-20T23:42:12.279Z,10.48
2022-09-20T23:44:57.745Z,10.48
2022-09-20T23:47:47.048Z,10.49
2022-09-20T23:50:32.312Z,10.51
2022-09-20T23:53:18.483Z,10.52
2022-09-20T23:56:04.508Z,10.50
2022-09-20T23:58:50.230Z,10.48
